Time;durP1;ratioP1;P1;durP2;ratioP2;P2;SDS_P1;SDS_P2;PMS_P1;PMS_P2;Temp;Humidity;BMP_temperature;BMP_pressure;BME280_temperature;BME280_humidity;BME280_pressure;Samples;Min_cycle;Max_cycle;Signal;HPM_P1;HPM_P2
2022/03/27 00:01:24;;;;;;;12.40;4.50;;;23.20;56.20;;;;;;215876;1294;22645;-56
2022/03/27 00:06:42;;;;;;;8.70;4.40;;;23.20;56.30;;;;;;215788;1292;24395;-53
2022/03/27 00:11:47;;;;;;;8.40;3.80;;;23.10;56.20;;;;;;215389;1293;25293;-54
2022/03/27 00:16:50;;;;;;;10.20;3.70;;;23.00;56.10;;;;;;215933;1293;22861;-54
2022/03/27 00:21:54;;;;;;;12.70;4.60;;;23.00;56.10;;;;;;215932;1293;22733;-55
2022/03/27 00:26:58;;;;;;;16.00;7.50;;;23.00;56.40;;;;;;215258;1293;22630;-57
2022/03/27 00:32:07;;;;;;;14.50;6.10;;;23.10;55.60;;;;;;215833;1294;22744;-57
2022/03/27 00:37:11;;;;;;;11.30;4.70;;;23.20;55.50;;;;;;215965;1293;22588;-57
2022/03/27 00:42:15;;;;;;;13.70;5.10;;;23.20;55.10;;;;;;215622;1293;25359;-54
2022/03/27 00:47:19;;;;;;;16.30;5.90;;;23.20;55.20;;;;;;215366;1293;22592;-56
2022/03/27 00:52:22;;;;;;;14.90;5.70;;;23.30;54.60;;;;;;216143;1294;25346;-55
2022/03/27 00:57:27;;;;;;;12.70;5.00;;;23.20;54.90;;;;;;215048;1296;22603;-54
2022/03/27 01:02:31;;;;;;;12.30;5.00;;;23.10;54.90;;;;;;216132;1294;25657;-54
2022/03/27 01:07:35;;;;;;;10.40;5.10;;;23.00;54.80;;;;;;216116;1293;23932;-53
2022/03/27 01:12:42;;;;;;;10.70;4.90;;;23.00;55.10;;;;;;215516;1296;25293;-55
2022/03/27 01:17:48;;;;;;;13.40;5.20;;;22.90;54.80;;;;;;215905;1293;22876;-57
2022/03/27 01:22:55;;;;;;;10.70;4.60;;;22.90;54.90;;;;;;215687;1293;24342;-55
2022/03/27 01:28:01;;;;;;;14.20;5.40;;;22.90;54.90;;;;;;215781;1293;22574;-58
2022/03/27 01:33:13;;;;;;;13.00;5.30;;;22.80;55.70;;;;;;215679;1293;22804;-55
2022/03/27 01:38:19;;;;;;;12.80;5.50;;;22.90;56.50;;;;;;215357;1296;24427;-53
2022/03/27 01:43:25;;;;;;;13.50;5.10;;;22.80;57.30;;;;;;215498;1293;24386;-54
2022/03/27 01:48:29;;;;;;;10.10;4.90;;;22.80;56.90;;;;;;215918;1293;25444;-56
2022/03/27 01:53:37;;;;;;;11.60;5.50;;;22.70;57.00;;;;;;215800;1293;24357;-57
2022/03/27 01:58:42;;;;;;;12.20;5.00;;;22.60;56.40;;;;;;215832;1293;22723;-54
2022/03/27 02:03:50;;;;;;;12.40;4.30;;;22.70;56.20;;;;;;215957;1293;25283;-54
2022/03/27 02:09:02;;;;;;;11.00;4.90;;;22.80;55.60;;;;;;215946;1293;22722;-55
2022/03/27 02:14:10;;;;;;;11.30;4.70;;;22.80;55.20;;;;;;215487;1296;22566;-53
2022/03/27 02:19:14;;;;;;;10.80;4.80;;;22.90;54.90;;;;;;215377;1296;24389;-56
2022/03/27 02:24:18;;;;;;;11.70;4.70;;;22.90;54.50;;;;;;216084;1293;24132;-57
2022/03/27 02:29:22;;;;;;;14.00;4.60;;;22.80;54.90;;;;;;215994;1293;24174;-58
2022/03/27 02:34:39;;;;;;;10.30;4.60;;;22.70;54.50;;;;;;215256;1296;24300;-55
2022/03/27 02:39:46;;;;;;;9.00;4.80;;;22.70;54.60;;;;;;216003;1294;22589;-54
2022/03/27 02:44:49;;;;;;;8.90;4.50;;;22.70;54.50;;;;;;216067;1294;25632;-54
2022/03/27 02:49:54;;;;;;;12.30;4.50;;;22.50;54.50;;;;;;216161;1294;24327;-58
2022/03/27 02:54:59;;;;;;;10.90;4.90;;;22.50;54.50;;;;;;216181;1293;25424;-55
2022/03/27 03:00:05;;;;;;;10.00;4.50;;;22.50;54.90;;;;;;216201;1292;24906;-59
2022/03/27 03:05:09;;;;;;;10.90;5.20;;;22.40;54.40;;;;;;216151;1292;24334;-56
2022/03/27 03:10:17;;;;;;;11.40;4.90;;;22.50;54.60;;;;;;216192;1294;24514;-56
2022/03/27 03:15:23;;;;;;;10.00;4.10;;;22.40;55.00;;;;;;216194;1293;22928;-59
2022/03/27 03:20:28;;;;;;;8.00;3.70;;;22.40;54.60;;;;;;216012;1294;24898;-54
2022/03/27 03:25:34;;;;;;;9.80;4.20;;;22.40;54.50;;;;;;216154;1293;23949;-56
2022/03/27 03:30:58;;;;;;;9.80;4.10;;;22.40;54.50;;;;;;216134;1294;22762;-60
2022/03/27 03:36:02;;;;;;;8.90;4.10;;;22.50;53.90;;;;;;216182;1293;25388;-54
2022/03/27 03:41:09;;;;;;;7.50;3.60;;;22.50;53.50;;;;;;215651;1293;22557;-52
2022/03/27 03:46:14;;;;;;;8.00;3.60;;;22.50;53.30;;;;;;215979;1293;23983;-54
2022/03/27 03:51:21;;;;;;;9.40;3.90;;;22.60;53.30;;;;;;216197;1294;23742;-54
2022/03/27 03:56:25;;;;;;;8.30;4.00;;;22.50;53.50;;;;;;216106;1294;25474;-55
2022/03/27 04:01:29;;;;;;;9.10;3.80;;;22.50;52.60;;;;;;216016;1294;24487;-55
2022/03/27 04:06:33;;;;;;;6.80;3.30;;;22.40;53.10;;;;;;215230;1296;22855;-55
2022/03/27 04:11:44;;;;;;;10.10;4.20;;;22.30;53.20;;;;;;215662;1296;22606;-59
2022/03/27 04:16:48;;;;;;;7.40;3.80;;;22.20;53.30;;;;;;215733;1294;22574;-53
2022/03/27 04:21:52;;;;;;;7.50;3.90;;;22.20;53.30;;;;;;215623;1293;25280;-55
2022/03/27 04:27:03;;;;;;;8.40;3.90;;;22.20;53.50;;;;;;215917;1293;22599;-54
2022/03/27 04:32:22;;;;;;;6.90;3.50;;;22.10;53.50;;;;;;216010;1293;24411;-58
2022/03/27 04:37:26;;;;;;;8.40;3.90;;;22.10;53.40;;;;;;215963;1293;25359;-53
2022/03/27 04:42:32;;;;;;;7.90;3.50;;;22.00;54.10;;;;;;216208;1293;22738;-57
2022/03/27 04:47:40;;;;;;;9.80;3.90;;;22.00;53.80;;;;;;215679;1293;459633;-55
2022/03/27 04:52:44;;;;;;;7.20;3.50;;;22.10;53.10;;;;;;215829;1293;24301;-53
2022/03/27 04:57:48;;;;;;;9.10;3.90;;;22.20;52.90;;;;;;215756;1293;25452;-53
2022/03/27 05:02:52;;;;;;;9.90;3.80;;;22.20;52.60;;;;;;215870;1293;22589;-54
2022/03/27 05:07:56;;;;;;;6.70;3.70;;;22.20;52.50;;;;;;216013;1294;25359;-55
2022/03/27 05:13:00;;;;;;;9.20;3.60;;;22.20;52.30;;;;;;216150;1294;22602;-54
2022/03/27 05:18:05;;;;;;;6.30;3.10;;;22.20;52.20;;;;;;215465;1296;25406;-55
2022/03/27 05:23:09;;;;;;;7.50;3.30;;;22.20;52.70;;;;;;216111;1293;23074;-59
2022/03/27 05:28:16;;;;;;;7.20;3.50;;;22.30;51.80;;;;;;215836;1293;22596;-56
2022/03/27 05:33:21;;;;;;;5.90;3.40;;;22.30;51.70;;;;;;216060;1293;25348;-58
2022/03/27 05:38:25;;;;;;;8.80;3.70;;;22.30;52.10;;;;;;215348;1296;22658;-57
2022/03/27 05:43:29;;;;;;;6.90;3.40;;;22.20;51.70;;;;;;215793;1296;22649;-57
2022/03/27 05:48:32;;;;;;;5.90;3.30;;;22.10;51.60;;;;;;216033;1294;22601;-55
2022/03/27 05:53:36;;;;;;;6.30;3.10;;;22.10;51.70;;;;;;216189;1294;22594;-54
2022/03/27 05:58:41;;;;;;;5.30;3.20;;;22.10;51.80;;;;;;216069;1294;22590;-57
2022/03/27 06:03:46;;;;;;;6.10;3.40;;;22.00;51.90;;;;;;215711;1293;22665;-53
2022/03/27 06:08:50;;;;;;;8.00;3.50;;;21.90;51.80;;;;;;215803;1296;25298;-55
2022/03/27 06:13:54;;;;;;;6.40;3.30;;;21.90;52.20;;;;;;215360;1296;22687;-57
2022/03/27 06:18:58;;;;;;;5.50;3.30;;;21.90;52.30;;;;;;215961;1294;22750;-53
2022/03/27 06:24:05;;;;;;;6.00;3.20;;;21.90;52.20;;;;;;215670;1293;23101;-54
2022/03/27 06:29:09;;;;;;;7.30;3.90;;;21.90;52.20;;;;;;215250;1296;23224;-53
2022/03/27 06:34:14;;;;;;;6.50;3.60;;;21.90;52.80;;;;;;216268;1294;25229;-53
2022/03/27 06:39:19;;;;;;;5.80;3.00;;;22.00;52.20;;;;;;216093;1293;23098;-54
2022/03/27 06:44:22;;;;;;;6.20;3.00;;;22.10;51.70;;;;;;215815;1293;22579;-54
2022/03/27 06:49:26;;;;;;;5.30;3.00;;;22.10;52.10;;;;;;216024;1294;22564;-54
2022/03/27 06:54:29;;;;;;;4.70;2.80;;;22.10;51.60;;;;;;216168;1294;25397;-56
2022/03/27 07:04:56;;;;;;;7.10;3.40;;;22.20;51.60;;;;;;215959;1293;26548;-55
2022/03/27 07:10:00;;;;;;;6.50;3.40;;;22.20;51.60;;;;;;215972;1293;25477;-54
2022/03/27 07:15:05;;;;;;;5.80;2.80;;;22.10;51.00;;;;;;215774;1293;26536;-54
2022/03/27 07:20:26;;;;;;;5.90;3.00;;;22.10;50.50;;;;;;215977;1294;24489;-53
2022/03/27 07:25:35;;;;;;;6.20;3.60;;;22.10;50.80;;;;;;216121;1293;22611;-55
2022/03/27 07:30:41;;;;;;;6.10;3.40;;;22.10;50.90;;;;;;215536;1296;25384;-55
2022/03/27 07:35:45;;;;;;;5.60;2.60;;;22.00;51.10;;;;;;215526;1296;22590;-52
2022/03/27 07:40:49;;;;;;;5.40;3.00;;;22.00;51.10;;;;;;215427;1296;22606;-52
2022/03/27 07:45:53;;;;;;;5.60;3.00;;;22.00;50.60;;;;;;215778;1293;24481;-52
2022/03/27 07:50:59;;;;;;;9.80;4.60;;;22.10;50.70;;;;;;215389;1293;22579;-53
2022/03/27 07:56:04;;;;;;;6.50;3.10;;;22.10;50.80;;;;;;215300;1293;24257;-56
2022/03/27 08:01:07;;;;;;;6.60;2.90;;;22.30;50.40;;;;;;215151;1293;22578;-54
2022/03/27 08:06:12;;;;;;;7.20;2.60;;;22.40;51.00;;;;;;215321;1296;22563;-50
2022/03/27 08:11:19;;;;;;;10.10;3.20;;;22.50;50.40;;;;;;215879;1293;25159;-48
2022/03/27 08:16:41;;;;;;;17.60;3.90;;;22.60;50.60;;;;;;215643;1293;24348;-51
2022/03/27 08:22:01;;;;;;;19.40;2.70;;;22.70;51.10;;;;;;215502;1294;24475;-48
2022/03/27 08:27:06;;;;;;;12.20;3.10;;;22.80;50.50;;;;;;215743;1293;22588;-47
2022/03/27 08:32:18;;;;;;;9.40;3.40;;;22.80;50.20;;;;;;215612;1293;24294;-47
2022/03/27 08:37:32;;;;;;;8.10;2.70;;;22.80;50.30;;;;;;217360;1293;25250;-48
2022/03/27 08:42:36;;;;;;;9.40;3.40;;;22.70;50.60;;;;;;215243;1293;22812;-47
2022/03/27 08:47:40;;;;;;;7.40;2.90;;;22.80;50.60;;;;;;215883;1294;24363;-49
2022/03/27 08:52:55;;;;;;;5.10;2.60;;;22.80;50.70;;;;;;215890;1293;24298;-50
2022/03/27 08:58:00;;;;;;;8.30;2.90;;;22.80;50.80;;;;;;215447;1294;24345;-52
2022/03/27 09:03:05;;;;;;;10.50;3.10;;;22.70;50.80;;;;;;215488;1294;23027;-51
2022/03/27 09:08:13;;;;;;;23.20;3.00;;;22.70;50.10;;;;;;215915;1294;23978;-49
2022/03/27 09:13:20;;;;;;;8.60;2.80;;;22.80;50.70;;;;;;215326;1293;22605;-49
2022/03/27 09:18:24;;;;;;;9.70;2.80;;;22.80;50.10;;;;;;215762;1296;22591;-51
2022/03/27 09:23:31;;;;;;;8.00;2.80;;;22.80;49.80;;;;;;216040;1293;22588;-50
2022/03/27 09:28:43;;;;;;;20.20;3.30;;;22.80;49.70;;;;;;216097;1294;24269;-52
2022/03/27 09:33:54;;;;;;;10.10;2.80;;;22.80;49.90;;;;;;215992;1294;22563;-47
2022/03/27 09:39:16;;;;;;;8.20;2.90;;;22.90;49.40;;;;;;216088;1293;22886;-48
2022/03/27 09:44:29;;;;;;;6.80;2.60;;;22.90;49.20;;;;;;216064;1293;22602;-49
2022/03/27 09:49:34;;;;;;;10.90;3.10;;;22.90;49.10;;;;;;216138;1293;22586;-53
2022/03/27 09:54:57;;;;;;;7.10;2.40;;;22.90;48.80;;;;;;216262;1294;25463;-48
2022/03/27 10:00:13;;;;;;;6.30;2.50;;;23.00;49.20;;;;;;216147;1294;24417;-49
2022/03/27 10:05:21;;;;;;;5.50;2.40;;;23.00;48.80;;;;;;216045;1294;22788;-49
2022/03/27 10:10:26;;;;;;;4.10;2.20;;;23.10;48.40;;;;;;216124;1293;22641;-52
2022/03/27 10:15:36;;;;;;;5.00;2.50;;;23.10;48.10;;;;;;216074;1294;23903;-49
2022/03/27 10:20:50;;;;;;;7.10;2.50;;;23.10;48.30;;;;;;215896;1293;22604;-49
2022/03/27 10:26:01;;;;;;;8.10;2.80;;;23.20;47.90;;;;;;216021;1294;25403;-48
2022/03/27 10:31:11;;;;;;;4.10;2.10;;;23.20;48.10;;;;;;215898;1294;22596;-49
2022/03/27 10:36:34;;;;;;;7.70;2.90;;;23.20;47.60;;;;;;215796;1294;24479;-49
2022/03/27 10:42:08;;;;;;;5.30;2.30;;;23.30;47.60;;;;;;215813;1294;23907;-52
2022/03/27 10:47:19;;;;;;;5.10;2.00;;;23.30;47.30;;;;;;215978;1294;22563;-51
2022/03/27 10:52:36;;;;;;;4.40;2.30;;;23.30;47.40;;;;;;216286;1293;25306;-49
2022/03/27 10:57:49;;;;;;;5.60;2.70;;;23.30;47.20;;;;;;216168;1293;24440;-53
2022/03/27 11:02:56;;;;;;;5.90;2.10;;;23.30;47.00;;;;;;216159;1294;22636;-51
2022/03/27 11:08:17;;;;;;;4.70;2.10;;;23.30;47.20;;;;;;216223;1294;22707;-52
2022/03/27 11:13:28;;;;;;;5.20;2.40;;;23.40;46.80;;;;;;215731;1294;24310;-49
2022/03/27 11:18:39;;;;;;;6.00;2.30;;;23.40;47.00;;;;;;215833;1293;24481;-51
2022/03/27 11:23:43;;;;;;;6.20;2.30;;;23.50;46.50;;;;;;215913;1296;23026;-51
2022/03/27 11:28:53;;;;;;;5.10;2.20;;;23.50;46.90;;;;;;216126;1293;27072;-50
2022/03/27 11:34:11;;;;;;;5.40;2.30;;;23.50;46.50;;;;;;215707;1294;22567;-54
2022/03/27 11:39:33;;;;;;;3.70;1.80;;;23.50;46.40;;;;;;216256;1294;25360;-50
2022/03/27 11:50:01;;;;;;;3.70;1.90;;;23.50;46.70;;;;;;216250;1294;22803;-48
2022/03/27 11:55:11;;;;;;;6.80;2.70;;;23.50;46.30;;;;;;216203;1294;22581;-49
2022/03/27 12:00:27;;;;;;;4.80;2.10;;;23.50;46.30;;;;;;216169;1294;25484;-49
2022/03/27 12:05:36;;;;;;;4.80;2.20;;;23.50;46.30;;;;;;216106;1293;24334;-49
2022/03/27 12:11:04;;;;;;;4.60;2.20;;;23.50;46.30;;;;;;215955;1292;22565;-52
2022/03/27 12:16:20;;;;;;;4.40;2.20;;;23.50;46.20;;;;;;215924;1293;22666;-50
2022/03/27 12:21:26;;;;;;;4.30;2.20;;;23.50;46.20;;;;;;215969;1294;22846;-51
2022/03/27 12:32:11;;;;;;;3.80;2.20;;;23.60;46.10;;;;;;215877;1294;26558;-51
2022/03/27 12:37:19;;;;;;;3.60;2.10;;;23.60;46.40;;;;;;216222;1296;22890;-48
2022/03/27 12:42:46;;;;;;;4.50;2.40;;;23.60;46.10;;;;;;215716;1294;23002;-51
2022/03/27 12:47:52;;;;;;;4.70;2.50;;;23.60;46.10;;;;;;215908;1294;22640;-49
2022/03/27 12:53:16;;;;;;;3.80;2.10;;;23.60;46.00;;;;;;216223;1294;22653;-50
2022/03/27 12:58:36;;;;;;;5.00;2.30;;;23.60;45.80;;;;;;216098;1294;25703;-49
2022/03/27 13:04:08;;;;;;;4.10;2.40;;;23.70;45.90;;;;;;216196;1293;22559;-53
2022/03/27 13:09:22;;;;;;;6.40;2.40;;;23.70;45.80;;;;;;216166;1293;22714;-49
2022/03/27 13:14:29;;;;;;;3.60;1.80;;;23.70;45.80;;;;;;216094;1294;25409;-49
2022/03/27 13:19:44;;;;;;;4.40;2.50;;;23.70;46.10;;;;;;215988;1293;22800;-52
2022/03/27 13:24:51;;;;;;;3.80;2.00;;;23.60;45.70;;;;;;216189;1294;22730;-51
2022/03/27 13:29:55;;;;;;;3.60;1.90;;;23.70;45.70;;;;;;215432;1293;25590;-51
2022/03/27 13:35:01;;;;;;;3.90;2.10;;;23.70;45.60;;;;;;215595;1296;22586;-49
2022/03/27 13:40:05;;;;;;;4.30;2.30;;;23.70;45.50;;;;;;215888;1294;23933;-49
2022/03/27 13:45:09;;;;;;;4.50;2.30;;;23.70;45.70;;;;;;215933;1294;25393;-52
2022/03/27 13:50:13;;;;;;;3.50;2.10;;;23.70;45.60;;;;;;216137;1294;24135;-51
2022/03/27 13:55:21;;;;;;;4.20;2.20;;;23.80;45.60;;;;;;216166;1294;25388;-51
2022/03/27 14:00:25;;;;;;;3.20;1.70;;;23.80;45.60;;;;;;216197;1294;25454;-53
2022/03/27 14:05:33;;;;;;;4.60;2.20;;;23.70;45.60;;;;;;216254;1294;26538;-50
2022/03/27 14:10:40;;;;;;;3.50;2.10;;;23.70;45.20;;;;;;215672;1293;22586;-51
2022/03/27 14:15:45;;;;;;;3.90;2.00;;;23.70;45.20;;;;;;215954;1294;22589;-53
2022/03/27 14:21:08;;;;;;;;;;;;;;;;;;;;;
2022/03/27 14:26:24;;;;;;;4.20;2.20;;;23.60;45.50;;;;;;215933;1294;22680;-57
2022/03/27 14:31:51;;;;;;;4.00;1.80;;;23.70;45.30;;;;;;215991;1293;22589;-55
2022/03/27 14:37:25;;;;;;;3.80;2.00;;;23.60;45.10;;;;;;216071;1294;24487;-50
2022/03/27 14:42:42;;;;;;;3.30;1.80;;;23.60;45.10;;;;;;215843;1293;24453;-50
2022/03/27 14:48:08;;;;;;;;;;;;;;;;;;;;;
2022/03/27 14:59:10;;;;;;;3.10;1.60;;;23.50;45.20;;;;;;216212;1293;23315;-50
2022/03/27 15:04:46;;;;;;;3.00;1.80;;;23.50;45.20;;;;;;216150;1293;25702;-49
2022/03/27 15:09:53;;;;;;;3.20;1.80;;;23.50;45.70;;;;;;216258;1293;24572;-51
2022/03/27 15:15:01;;;;;;;3.30;1.80;;;23.50;45.30;;;;;;215783;1293;25656;-49
2022/03/27 15:20:07;;;;;;;2.90;1.70;;;23.40;45.50;;;;;;216003;1293;22573;-49
2022/03/27 15:25:14;;;;;;;2.90;1.50;;;23.40;45.20;;;;;;215918;1293;22813;-50
2022/03/27 15:30:21;;;;;;;3.10;1.70;;;23.40;45.20;;;;;;215970;1293;24420;-49
2022/03/27 15:35:26;;;;;;;4.50;2.00;;;23.40;45.20;;;;;;215924;1293;25286;-52
2022/03/27 15:40:30;;;;;;;3.80;1.90;;;23.30;45.10;;;;;;216114;1293;24484;-49
2022/03/27 15:45:37;;;;;;;4.00;1.70;;;23.30;45.20;;;;;;215840;1293;22588;-51
2022/03/27 15:50:51;;;;;;;3.70;1.90;;;23.30;45.10;;;;;;216156;1294;25527;-48
2022/03/27 15:55:55;;;;;;;4.40;1.80;;;23.20;45.40;;;;;;216116;1294;26041;-52
2022/03/27 16:01:01;;;;;;;3.60;1.90;;;23.20;45.10;;;;;;215824;1294;25626;-48
2022/03/27 16:06:11;;;;;;;5.50;2.40;;;23.20;45.30;;;;;;216246;1294;22631;-50
2022/03/27 16:11:16;;;;;;;3.30;1.60;;;23.10;45.20;;;;;;216248;1294;22667;-51
2022/03/27 16:16:26;;;;;;;4.00;1.60;;;23.10;45.20;;;;;;216077;1294;22659;-48
2022/03/27 16:21:35;;;;;;;4.80;1.90;;;23.00;45.10;;;;;;215950;1293;23947;-47
2022/03/27 16:26:41;;;;;;;5.30;2.10;;;23.00;45.50;;;;;;215736;1294;22573;-50
2022/03/27 16:31:45;;;;;;;3.20;1.70;;;23.00;45.20;;;;;;215753;1293;22598;-49
2022/03/27 16:36:51;;;;;;;4.50;1.70;;;23.00;45.10;;;;;;215681;1293;22582;-50
2022/03/27 16:41:56;;;;;;;5.10;2.10;;;22.90;45.00;;;;;;215850;1293;24262;-49
2022/03/27 16:47:04;;;;;;;2.40;1.40;;;22.90;45.00;;;;;;215540;1293;260798;-55
2022/03/27 16:52:18;;;;;;;2.70;1.50;;;22.90;45.00;;;;;;216145;1294;25679;-52
2022/03/27 16:57:43;;;;;;;2.90;1.60;;;22.90;45.10;;;;;;216119;1294;22571;-50
2022/03/27 17:02:57;;;;;;;4.90;2.10;;;22.80;45.00;;;;;;216179;1293;24351;-52
2022/03/27 17:08:08;;;;;;;3.30;1.60;;;22.80;45.10;;;;;;216138;1293;22561;-50
2022/03/27 17:13:25;;;;;;;4.60;1.50;;;22.80;45.10;;;;;;215875;1293;24265;-50
2022/03/27 17:18:28;;;;;;;2.40;1.30;;;22.70;45.10;;;;;;215902;1293;25344;-52
2022/03/27 17:23:50;;;;;;;2.90;1.70;;;22.70;44.90;;;;;;215857;1293;23058;-51
2022/03/27 17:29:03;;;;;;;3.30;1.70;;;22.70;45.10;;;;;;216106;1293;23073;-49
2022/03/27 17:34:11;;;;;;;2.70;1.50;;;22.70;45.10;;;;;;215801;1293;24333;-51
2022/03/27 17:39:29;;;;;;;3.50;1.80;;;22.70;45.10;;;;;;215585;1293;23937;-49
2022/03/27 17:44:39;;;;;;;2.50;1.30;;;22.60;45.40;;;;;;215990;1293;23275;-50
2022/03/27 17:49:55;;;;;;;2.30;1.50;;;22.50;45.20;;;;;;216187;1294;22674;-52
2022/03/27 17:55:01;;;;;;;3.60;1.70;;;22.50;45.10;;;;;;216230;1293;26528;-49
2022/03/27 18:00:19;;;;;;;4.50;2.20;;;22.50;44.80;;;;;;216114;1294;22586;-48
2022/03/27 18:05:29;;;;;;;4.40;1.90;;;22.50;45.30;;;;;;216164;1294;22643;-50
2022/03/27 18:10:38;;;;;;;2.60;1.50;;;22.50;45.30;;;;;;216287;1294;22589;-49
2022/03/27 18:16:03;;;;;;;3.80;1.70;;;22.40;45.20;;;;;;215840;1293;26049;-50
2022/03/27 18:21:19;;;;;;;3.30;1.80;;;22.40;45.60;;;;;;215527;1293;25314;-50
2022/03/27 18:26:30;;;;;;;3.40;1.80;;;22.40;45.30;;;;;;216250;1293;24450;-52
2022/03/27 18:31:36;;;;;;;3.50;1.50;;;22.40;45.30;;;;;;215918;1293;24161;-50
2022/03/27 18:36:56;;;;;;;10.40;2.10;;;22.30;45.30;;;;;;215798;1292;24268;-52
2022/03/27 18:42:21;;;;;;;6.90;1.90;;;22.50;45.50;;;;;;215976;1293;22570;-51
2022/03/27 18:47:36;;;;;;;7.00;1.80;;;22.50;45.50;;;;;;215427;1293;25562;-47
2022/03/27 18:52:45;;;;;;;4.80;1.70;;;22.50;45.50;;;;;;216144;1294;25332;-54
2022/03/27 18:57:52;;;;;;;4.10;1.40;;;22.60;45.90;;;;;;215985;1294;24492;-49
2022/03/27 19:03:16;;;;;;;12.60;2.60;;;22.60;46.40;;;;;;215698;1293;22589;-50
2022/03/27 19:08:21;;;;;;;11.20;3.00;;;22.80;46.90;;;;;;214751;1293;24416;-52
2022/03/27 19:13:25;;;;;;;14.60;2.00;;;22.80;46.10;;;;;;215457;1293;23073;-53
2022/03/27 19:18:39;;;;;;;12.00;2.50;;;22.80;46.20;;;;;;215472;1296;22579;-50
2022/03/27 19:23:51;;;;;;;22.10;2.40;;;22.80;46.30;;;;;;215545;1294;24435;-52
2022/03/27 19:28:56;;;;;;;9.50;2.40;;;22.80;46.30;;;;;;216754;1293;23320;-49
2022/03/27 19:33:59;;;;;;;11.60;2.90;;;22.90;46.60;;;;;;216149;1293;22644;-50
2022/03/27 19:39:03;;;;;;;10.50;2.00;;;22.80;46.40;;;;;;215382;1293;22639;-50
2022/03/27 19:44:12;;;;;;;13.60;2.60;;;22.80;46.60;;;;;;215772;1294;25414;-52
2022/03/27 19:49:16;;;;;;;15.60;3.10;;;22.60;46.10;;;;;;215978;1294;22658;-51
2022/03/27 19:54:22;;;;;;;10.30;2.90;;;22.60;46.40;;;;;;215887;1293;24501;-52
2022/03/27 19:59:27;;;;;;;20.20;3.20;;;22.60;46.30;;;;;;215435;1296;25348;-51
2022/03/27 20:04:31;;;;;;;22.60;3.50;;;22.60;46.70;;;;;;215902;1293;22567;-56
2022/03/27 20:09:38;;;;;;;11.10;2.50;;;22.60;46.80;;;;;;215579;1294;25296;-50
2022/03/27 20:14:59;;;;;;;14.90;3.80;;;22.60;47.40;;;;;;215796;1293;24546;-54
2022/03/27 20:20:18;;;;;;;8.60;2.50;;;22.50;47.60;;;;;;215954;1293;25518;-50
2022/03/27 20:25:35;;;;;;;12.10;3.40;;;22.50;47.70;;;;;;215577;1293;24479;-54
2022/03/27 20:30:53;;;;;;;8.00;3.40;;;22.50;47.80;;;;;;215774;1294;26588;-49
2022/03/27 20:36:08;;;;;;;8.70;2.80;;;22.40;48.10;;;;;;215729;1293;25487;-49
2022/03/27 20:41:35;;;;;;;7.50;2.80;;;22.40;48.20;;;;;;215647;1293;24730;-52
2022/03/27 20:47:05;;;;;;;12.60;2.80;;;22.40;48.50;;;;;;215368;1296;24797;-52
2022/03/27 20:52:18;;;;;;;9.30;3.00;;;22.50;47.90;;;;;;215771;1293;24556;-53
2022/03/27 20:57:29;;;;;;;8.80;3.00;;;22.60;47.80;;;;;;215494;1294;24325;-51
2022/03/27 21:02:36;;;;;;;11.20;3.60;;;22.60;47.90;;;;;;215807;1294;22860;-51
2022/03/27 21:07:41;;;;;;;13.70;3.40;;;22.70;47.80;;;;;;215990;1293;25981;-50
2022/03/27 21:12:48;;;;;;;13.50;3.50;;;22.70;47.50;;;;;;215390;1293;23965;-52
2022/03/27 21:18:03;;;;;;;9.30;3.40;;;22.70;48.30;;;;;;215851;1294;22692;-50
2022/03/27 21:23:17;;;;;;;6.60;2.90;;;22.60;48.00;;;;;;215645;1293;24345;-49
2022/03/27 21:28:21;;;;;;;14.60;4.00;;;22.60;47.90;;;;;;215536;1293;22596;-50
2022/03/27 21:33:24;;;;;;;6.60;3.20;;;22.50;48.00;;;;;;215008;1293;22615;-51
2022/03/27 21:38:29;;;;;;;9.70;3.80;;;22.50;48.10;;;;;;215632;1292;22608;-50
2022/03/27 21:43:48;;;;;;;9.40;4.10;;;22.40;48.00;;;;;;215622;1293;22627;-51
2022/03/27 21:48:54;;;;;;;11.20;4.30;;;22.40;48.00;;;;;;215726;1293;25301;-51
2022/03/27 21:54:00;;;;;;;12.50;3.80;;;22.40;47.70;;;;;;215543;1293;22573;-53
2022/03/27 21:59:05;;;;;;;13.50;4.10;;;22.40;48.10;;;;;;215840;1293;25372;-51
2022/03/27 22:04:11;;;;;;;11.70;4.10;;;22.30;48.00;;;;;;215558;1293;22582;-51
2022/03/27 22:09:15;;;;;;;8.10;4.10;;;22.30;48.10;;;;;;215840;1293;22566;-52
2022/03/27 22:14:18;;;;;;;8.90;4.00;;;22.40;48.20;;;;;;215572;1293;22915;-52
2022/03/27 22:19:22;;;;;;;10.40;4.10;;;22.40;48.00;;;;;;215454;1293;24448;-54
2022/03/27 22:24:25;;;;;;;8.40;3.90;;;22.50;48.00;;;;;;215906;1293;23046;-53
2022/03/27 22:29:29;;;;;;;6.90;4.10;;;22.50;48.00;;;;;;215968;1293;22566;-56
2022/03/27 22:34:35;;;;;;;8.40;4.40;;;22.60;47.70;;;;;;215799;1293;22819;-50
2022/03/27 22:39:39;;;;;;;12.10;4.50;;;22.50;47.60;;;;;;215868;1293;22568;-55
2022/03/27 22:44:42;;;;;;;8.40;4.50;;;22.50;47.50;;;;;;215619;1293;22608;-49
2022/03/27 22:49:46;;;;;;;8.60;5.10;;;22.40;47.40;;;;;;216064;1294;24632;-48
2022/03/27 22:54:53;;;;;;;9.20;4.50;;;22.50;47.80;;;;;;216170;1294;24821;-49
2022/03/27 22:59:57;;;;;;;12.40;5.00;;;22.40;47.10;;;;;;216133;1294;22562;-50
2022/03/27 23:05:03;;;;;;;10.80;5.50;;;22.30;47.10;;;;;;216152;1294;22561;-54
2022/03/27 23:10:07;;;;;;;11.30;6.30;;;22.30;47.40;;;;;;216183;1293;24421;-49
2022/03/27 23:15:11;;;;;;;10.60;5.50;;;22.20;47.30;;;;;;215898;1293;24295;-50
2022/03/27 23:20:15;;;;;;;8.80;4.70;;;22.20;47.40;;;;;;215581;1293;25484;-53
2022/03/27 23:25:19;;;;;;;11.40;5.90;;;22.20;47.40;;;;;;216038;1293;24272;-52
2022/03/27 23:30:22;;;;;;;16.00;6.70;;;22.10;47.90;;;;;;215809;1293;25407;-50
2022/03/27 23:35:26;;;;;;;9.90;5.40;;;22.10;47.20;;;;;;216121;1293;22566;-51
2022/03/27 23:40:30;;;;;;;11.00;5.70;;;22.00;47.60;;;;;;216225;1293;25435;-50
2022/03/27 23:45:35;;;;;;;9.20;5.50;;;22.00;48.20;;;;;;215888;1294;24254;-52
2022/03/27 23:50:39;;;;;;;9.60;5.90;;;21.90;47.60;;;;;;216100;1293;22547;-50
2022/03/27 23:55:42;;;;;;;12.30;6.30;;;21.90;47.30;;;;;;215898;1293;25682;-53
